sensor_id;sensor_type;location;lat;lon;timestamp;pressure;altitude;pressure_sealevel;temperature;humidity
15914;BME280;8055;51.930;8.840;2023-05-17T00:02:10;76755.97;;;-145.72;100.00
15914;BME280;8055;51.930;8.840;2023-05-17T00:04:35;76760.09;;;-145.72;100.00
15914;BME280;8055;51.930;8.840;2023-05-17T00:07:01;76747.69;;;-145.72;100.00
15914;BME280;8055;51.930;8.840;2023-05-17T00:09:26;76762.19;;;-145.72;100.00
15914;BME280;8055;51.930;8.840;2023-05-17T00:11:51;76768.38;;;-145.72;100.00
15914;BME280;8055;51.930;8.840;2023-05-17T00:14:17;76766.31;;;-145.72;100.00
15914;BME280;8055;51.930;8.840;2023-05-17T00:16:42;76760.09;;;-145.72;100.00
15914;BME280;8055;51.930;8.840;2023-05-17T00:19:08;76764.25;;;-145.72;100.00
15914;BME280;8055;51.930;8.840;2023-05-17T00:21:34;76768.38;;;-145.72;100.00
15914;BME280;8055;51.930;8.840;2023-05-17T00:23:59;76780.81;;;-145.72;100.00
15914;BME280;8055;51.930;8.840;2023-05-17T00:26:25;76766.31;;;-145.72;100.00
15914;BME280;8055;51.930;8.840;2023-05-17T00:28:50;76764.25;;;-145.72;100.00
15914;BME280;8055;51.930;8.840;2023-05-17T00:31:15;76764.25;;;-145.72;100.00
15914;BME280;8055;51.930;8.840;2023-05-17T00:33:41;76768.38;;;-145.72;100.00
15914;BME280;8055;51.930;8.840;2023-05-17T00:36:06;76768.38;;;-145.72;100.00
15914;BME280;8055;51.930;8.840;2023-05-17T00:38:32;76772.53;;;-145.72;100.00
15914;BME280;8055;51.930;8.840;2023-05-17T00:40:57;76768.38;;;-145.72;100.00
15914;BME280;8055;51.930;8.840;2023-05-17T00:43:22;76784.94;;;-145.72;100.00
15914;BME280;8055;51.930;8.840;2023-05-17T00:45:49;76789.09;;;-145.72;100.00
15914;BME280;8055;51.930;8.840;2023-05-17T00:48:15;76795.28;;;-145.72;100.00
15914;BME280;8055;51.930;8.840;2023-05-17T00:50:41;76811.84;;;-145.72;100.00
15914;BME280;8055;51.930;8.840;2023-05-17T00:53:07;76803.56;;;-145.72;100.00
15914;BME280;8055;51.930;8.840;2023-05-17T00:55:33;76809.78;;;-145.72;100.00
15914;BME280;8055;51.930;8.840;2023-05-17T00:57:59;76805.63;;;-145.72;100.00
15914;BME280;8055;51.930;8.840;2023-05-17T01:00:25;76801.50;;;-145.72;100.00
15914;BME280;8055;51.930;8.840;2023-05-17T01:02:51;76803.56;;;-145.72;100.00
15914;BME280;8055;51.930;8.840;2023-05-17T01:05:16;76811.84;;;-145.72;100.00
15914;BME280;8055;51.930;8.840;2023-05-17T01:07:42;76807.72;;;-145.72;100.00
15914;BME280;8055;51.930;8.840;2023-05-17T01:10:09;76799.44;;;-145.72;100.00
15914;BME280;8055;51.930;8.840;2023-05-17T01:13:09;76811.84;;;-145.72;100.00
15914;BME280;8055;51.930;8.840;2023-05-17T01:15:46;76816.00;;;-145.72;100.00
15914;BME280;8055;51.930;8.840;2023-05-17T01:18:34;76818.06;;;-145.72;100.00
15914;BME280;8055;51.930;8.840;2023-05-17T01:21:02;76826.34;;;-145.72;100.00
15914;BME280;8055;51.930;8.840;2023-05-17T01:23:44;76822.19;;;-145.72;100.00
15914;BME280;8055;51.930;8.840;2023-05-17T01:26:19;76828.41;;;-145.72;100.00
15914;BME280;8055;51.930;8.840;2023-05-17T01:28:52;76826.34;;;-145.72;100.00
15914;BME280;8055;51.930;8.840;2023-05-17T01:31:19;76830.47;;;-145.72;100.00
15914;BME280;8055;51.930;8.840;2023-05-17T01:33:45;76826.34;;;-145.72;100.00
15914;BME280;8055;51.930;8.840;2023-05-17T01:36:10;76828.41;;;-145.72;100.00
15914;BME280;8055;51.930;8.840;2023-05-17T01:38:35;76832.53;;;-145.72;100.00
15914;BME280;8055;51.930;8.840;2023-05-17T01:41:16;76836.69;;;-145.72;100.00
15914;BME280;8055;51.930;8.840;2023-05-17T01:44:18;76834.63;;;-145.72;100.00
15914;BME280;8055;51.930;8.840;2023-05-17T01:46:49;76842.91;;;-145.72;100.00
15914;BME280;8055;51.930;8.840;2023-05-17T01:49:24;76853.25;;;-145.72;100.00
15914;BME280;8055;51.930;8.840;2023-05-17T01:52:07;76863.59;;;-145.72;100.00
15914;BME280;8055;51.930;8.840;2023-05-17T01:54:46;76865.66;;;-145.72;100.00
15914;BME280;8055;51.930;8.840;2023-05-17T01:57:18;76871.88;;;-145.72;100.00
15914;BME280;8055;51.930;8.840;2023-05-17T01:59:45;76871.88;;;-145.72;100.00
15914;BME280;8055;51.930;8.840;2023-05-17T02:02:11;76882.22;;;-145.72;100.00
15914;BME280;8055;51.930;8.840;2023-05-17T02:04:37;76896.72;;;-145.72;100.00
15914;BME280;8055;51.930;8.840;2023-05-17T02:07:03;76900.84;;;-145.72;100.00
15914;BME280;8055;51.930;8.840;2023-05-17T02:09:28;76909.13;;;-145.72;100.00
15914;BME280;8055;51.930;8.840;2023-05-17T02:11:55;76913.28;;;-145.72;100.00
15914;BME280;8055;51.930;8.840;2023-05-17T02:14:20;76913.28;;;-145.72;100.00
15914;BME280;8055;51.930;8.840;2023-05-17T02:16:45;76917.41;;;-145.72;100.00
15914;BME280;8055;51.930;8.840;2023-05-17T02:19:11;76917.41;;;-145.72;100.00
15914;BME280;8055;51.930;8.840;2023-05-17T02:21:37;76921.53;;;-145.72;100.00
15914;BME280;8055;51.930;8.840;2023-05-17T02:24:03;76933.97;;;-145.72;100.00
15914;BME280;8055;51.930;8.840;2023-05-17T02:26:28;76938.09;;;-145.72;100.00
15914;BME280;8055;51.930;8.840;2023-05-17T02:28:56;76929.81;;;-145.72;100.00
15914;BME280;8055;51.930;8.840;2023-05-17T02:31:21;76929.81;;;-145.72;100.00
15914;BME280;8055;51.930;8.840;2023-05-17T02:33:49;76933.97;;;-145.72;100.00
15914;BME280;8055;51.930;8.840;2023-05-17T02:36:14;76933.97;;;-145.72;100.00
15914;BME280;8055;51.930;8.840;2023-05-17T02:38:39;76933.97;;;-145.72;100.00
15914;BME280;8055;51.930;8.840;2023-05-17T02:41:05;76942.25;;;-145.72;100.00
15914;BME280;8055;51.930;8.840;2023-05-17T02:43:30;76929.81;;;-145.72;100.00
15914;BME280;8055;51.930;8.840;2023-05-17T02:45:55;76944.31;;;-145.72;100.00
15914;BME280;8055;51.930;8.840;2023-05-17T02:48:21;76944.31;;;-145.72;100.00
15914;BME280;8055;51.930;8.840;2023-05-17T02:50:46;76954.66;;;-145.72;100.00
15914;BME280;8055;51.930;8.840;2023-05-17T02:53:11;76950.53;;;-145.72;100.00
15914;BME280;8055;51.930;8.840;2023-05-17T02:55:37;76958.81;;;-145.72;100.00
15914;BME280;8055;51.930;8.840;2023-05-17T02:58:02;76958.81;;;-145.72;100.00
15914;BME280;8055;51.930;8.840;2023-05-17T03:00:28;76965.00;;;-145.72;100.00
15914;BME280;8055;51.930;8.840;2023-05-17T03:02:54;76969.16;;;-145.72;100.00
15914;BME280;8055;51.930;8.840;2023-05-17T03:05:19;76977.44;;;-145.72;100.00
15914;BME280;8055;51.930;8.840;2023-05-17T03:07:45;76975.38;;;-145.72;100.00
15914;BME280;8055;51.930;8.840;2023-05-17T03:10:10;76981.56;;;-145.72;100.00
15914;BME280;8055;51.930;8.840;2023-05-17T03:12:35;76975.38;;;-145.72;100.00
15914;BME280;8055;51.930;8.840;2023-05-17T03:15:01;76975.38;;;-145.72;100.00
15914;BME280;8055;51.930;8.840;2023-05-17T03:17:26;76969.16;;;-145.72;100.00
15914;BME280;8055;51.930;8.840;2023-05-17T03:19:51;76967.09;;;-145.72;100.00
15914;BME280;8055;51.930;8.840;2023-05-17T03:22:17;76973.28;;;-145.72;100.00
15914;BME280;8055;51.930;8.840;2023-05-17T03:24:42;76973.28;;;-145.72;100.00
15914;BME280;8055;51.930;8.840;2023-05-17T03:27:07;76969.16;;;-145.72;100.00
15914;BME280;8055;51.930;8.840;2023-05-17T03:29:33;76967.09;;;-145.72;100.00
15914;BME280;8055;51.930;8.840;2023-05-17T03:31:58;76967.09;;;-145.72;100.00
15914;BME280;8055;51.930;8.840;2023-05-17T03:34:24;76960.88;;;-145.72;100.00
15914;BME280;8055;51.930;8.840;2023-05-17T03:36:50;76965.00;;;-145.72;100.00
15914;BME280;8055;51.930;8.840;2023-05-17T03:39:15;76960.88;;;-145.72;100.00
15914;BME280;8055;51.930;8.840;2023-05-17T03:41:40;76962.94;;;-145.72;100.00
15914;BME280;8055;51.930;8.840;2023-05-17T03:44:06;76967.09;;;-145.72;100.00
15914;BME280;8055;51.930;8.840;2023-05-17T03:46:31;76965.00;;;-145.72;100.00
15914;BME280;8055;51.930;8.840;2023-05-17T03:48:57;76967.09;;;-145.72;100.00
15914;BME280;8055;51.930;8.840;2023-05-17T03:51:22;76971.22;;;-145.72;100.00
15914;BME280;8055;51.930;8.840;2023-05-17T03:53:55;76971.22;;;-145.72;100.00
15914;BME280;8055;51.930;8.840;2023-05-17T03:56:21;76977.44;;;-145.72;100.00
15914;BME280;8055;51.930;8.840;2023-05-17T03:58:46;76985.72;;;-145.72;100.00
15914;BME280;8055;51.930;8.840;2023-05-17T04:01:12;76983.66;;;-145.72;100.00
15914;BME280;8055;51.930;8.840;2023-05-17T04:03:37;76985.72;;;-145.72;100.00
15914;BME280;8055;51.930;8.840;2023-05-17T04:06:04;76981.56;;;-145.72;100.00
15914;BME280;8055;51.930;8.840;2023-05-17T04:08:33;76996.06;;;-145.72;100.00
15914;BME280;8055;51.930;8.840;2023-05-17T04:10:59;76996.06;;;-145.72;100.00
15914;BME280;8055;51.930;8.840;2023-05-17T04:13:33;77002.28;;;-145.72;100.00
15914;BME280;8055;51.930;8.840;2023-05-17T04:15:59;77006.41;;;-145.72;100.00
15914;BME280;8055;51.930;8.840;2023-05-17T04:18:24;77004.34;;;-145.72;100.00
15914;BME280;8055;51.930;8.840;2023-05-17T04:20:50;76996.06;;;-145.72;100.00
15914;BME280;8055;51.930;8.840;2023-05-17T04:23:15;77000.19;;;-145.72;100.00
15914;BME280;8055;51.930;8.840;2023-05-17T04:25:40;77004.34;;;-145.72;100.00
15914;BME280;8055;51.930;8.840;2023-05-17T04:28:06;77004.34;;;-145.72;100.00
15914;BME280;8055;51.930;8.840;2023-05-17T04:30:32;76996.06;;;-145.72;100.00
15914;BME280;8055;51.930;8.840;2023-05-17T04:32:58;76991.94;;;-145.72;100.00
15914;BME280;8055;51.930;8.840;2023-05-17T04:35:23;76991.94;;;-145.72;100.00
15914;BME280;8055;51.930;8.840;2023-05-17T04:37:49;76991.94;;;-145.72;100.00
15914;BME280;8055;51.930;8.840;2023-05-17T04:40:14;76991.94;;;-145.72;100.00
15914;BME280;8055;51.930;8.840;2023-05-17T04:42:40;76987.78;;;-145.72;100.00
15914;BME280;8055;51.930;8.840;2023-05-17T04:45:05;76987.78;;;-145.72;100.00
15914;BME280;8055;51.930;8.840;2023-05-17T04:47:31;76979.50;;;-145.72;100.00
15914;BME280;8055;51.930;8.840;2023-05-17T04:49:56;76973.28;;;-145.72;100.00
15914;BME280;8055;51.930;8.840;2023-05-17T04:52:22;76975.38;;;-145.72;100.00
15914;BME280;8055;51.930;8.840;2023-05-17T04:54:47;76977.44;;;-145.72;100.00
15914;BME280;8055;51.930;8.840;2023-05-17T04:57:12;76981.56;;;-145.72;100.00
15914;BME280;8055;51.930;8.840;2023-05-17T04:59:39;76979.50;;;-145.72;100.00
15914;BME280;8055;51.930;8.840;2023-05-17T05:02:04;76975.38;;;-145.72;100.00
15914;BME280;8055;51.930;8.840;2023-05-17T05:04:30;76975.38;;;-145.72;100.00
15914;BME280;8055;51.930;8.840;2023-05-17T05:06:56;76967.09;;;-145.72;100.00
15914;BME280;8055;51.930;8.840;2023-05-17T05:09:21;76960.88;;;-145.72;100.00
15914;BME280;8055;51.930;8.840;2023-05-17T05:11:46;76950.53;;;-145.72;100.00
15914;BME280;8055;51.930;8.840;2023-05-17T05:14:12;76933.97;;;-145.72;100.00
15914;BME280;8055;51.930;8.840;2023-05-17T05:16:37;76936.03;;;-145.72;100.00
15914;BME280;8055;51.930;8.840;2023-05-17T05:19:02;76921.53;;;-145.72;100.00
15914;BME280;8055;51.930;8.840;2023-05-17T05:21:29;76915.34;;;-145.72;100.00
15914;BME280;8055;51.930;8.840;2023-05-17T05:23:54;76909.13;;;-145.72;100.00
15914;BME280;8055;51.930;8.840;2023-05-17T05:26:20;76911.19;;;-145.72;100.00
15914;BME280;8055;51.930;8.840;2023-05-17T05:28:45;76905.00;;;-145.72;100.00
15914;BME280;8055;51.930;8.840;2023-05-17T05:31:11;76907.06;;;-145.72;100.00
15914;BME280;8055;51.930;8.840;2023-05-17T05:33:36;76900.84;;;-145.72;100.00
15914;BME280;8055;51.930;8.840;2023-05-17T05:36:01;76902.91;;;-145.72;100.00
15914;BME280;8055;51.930;8.840;2023-05-17T05:38:27;76921.53;;;-145.72;100.00
15914;BME280;8055;51.930;8.840;2023-05-17T05:40:52;76921.53;;;-145.72;100.00
15914;BME280;8055;51.930;8.840;2023-05-17T05:43:18;76925.69;;;-145.72;100.00
15914;BME280;8055;51.930;8.840;2023-05-17T05:45:43;76919.47;;;-145.72;100.00
15914;BME280;8055;51.930;8.840;2023-05-17T05:48:12;76925.69;;;-145.72;100.00
15914;BME280;8055;51.930;8.840;2023-05-17T05:50:40;76931.91;;;-145.72;100.00
15914;BME280;8055;51.930;8.840;2023-05-17T05:53:05;76936.03;;;-145.72;100.00
15914;BME280;8055;51.930;8.840;2023-05-17T05:55:31;76933.97;;;-145.72;100.00
15914;BME280;8055;51.930;8.840;2023-05-17T05:57:56;76938.09;;;-145.72;100.00
15914;BME280;8055;51.930;8.840;2023-05-17T06:00:21;76938.09;;;-145.72;100.00
15914;BME280;8055;51.930;8.840;2023-05-17T06:02:47;76933.97;;;-145.72;100.00
15914;BME280;8055;51.930;8.840;2023-05-17T06:05:12;76933.97;;;-145.72;100.00
15914;BME280;8055;51.930;8.840;2023-05-17T06:07:37;76927.75;;;-145.72;100.00
15914;BME280;8055;51.930;8.840;2023-05-17T06:10:03;76925.69;;;-145.72;100.00
15914;BME280;8055;51.930;8.840;2023-05-17T06:12:28;76927.75;;;-145.72;100.00
15914;BME280;8055;51.930;8.840;2023-05-17T06:14:54;76929.81;;;-145.72;100.00
15914;BME280;8055;51.930;8.840;2023-05-17T06:17:19;76946.38;;;-145.72;100.00
15914;BME280;8055;51.930;8.840;2023-05-17T06:19:45;76950.53;;;-145.72;100.00
15914;BME280;8055;51.930;8.840;2023-05-17T06:22:13;76944.31;;;-145.72;100.00
15914;BME280;8055;51.930;8.840;2023-05-17T06:24:39;76954.66;;;-145.72;100.00
15914;BME280;8055;51.930;8.840;2023-05-17T06:27:04;76958.81;;;-145.72;100.00
15914;BME280;8055;51.930;8.840;2023-05-17T06:29:31;76971.22;;;-145.72;100.00
15914;BME280;8055;51.930;8.840;2023-05-17T06:31:56;76958.81;;;-145.72;100.00
15914;BME280;8055;51.930;8.840;2023-05-17T06:34:24;76981.56;;;-145.72;100.00
15914;BME280;8055;51.930;8.840;2023-05-17T06:36:49;76987.78;;;-145.72;100.00
15914;BME280;8055;51.930;8.840;2023-05-17T06:39:15;76965.00;;;-145.72;100.00
15914;BME280;8055;51.930;8.840;2023-05-17T06:41:40;76938.09;;;-145.72;100.00
15914;BME280;8055;51.930;8.840;2023-05-17T06:44:07;76948.47;;;-145.72;100.00
15914;BME280;8055;51.930;8.840;2023-05-17T06:46:32;76948.47;;;-145.72;100.00
15914;BME280;8055;51.930;8.840;2023-05-17T06:48:57;76933.97;;;-145.72;100.00
15914;BME280;8055;51.930;8.840;2023-05-17T06:51:23;76894.63;;;-145.72;100.00
15914;BME280;8055;51.930;8.840;2023-05-17T06:53:48;76902.91;;;-145.72;100.00
15914;BME280;8055;51.930;8.840;2023-05-17T06:56:14;76913.28;;;-145.72;100.00
15914;BME280;8055;51.930;8.840;2023-05-17T06:58:40;76909.13;;;-145.72;100.00
15914;BME280;8055;51.930;8.840;2023-05-17T07:01:05;76900.84;;;-145.72;100.00
15914;BME280;8055;51.930;8.840;2023-05-17T07:03:31;76892.56;;;-145.72;100.00
15914;BME280;8055;51.930;8.840;2023-05-17T07:05:56;76880.16;;;-145.72;100.00
15914;BME280;8055;51.930;8.840;2023-05-17T07:08:22;76863.59;;;-145.72;100.00
15914;BME280;8055;51.930;8.840;2023-05-17T07:10:50;76869.81;;;-145.72;100.00
15914;BME280;8055;51.930;8.840;2023-05-17T07:13:16;76855.31;;;-145.72;100.00
15914;BME280;8055;51.930;8.840;2023-05-17T07:15:42;76865.66;;;-145.72;100.00
15914;BME280;8055;51.930;8.840;2023-05-17T07:18:07;76902.91;;;-145.72;100.00
15914;BME280;8055;51.930;8.840;2023-05-17T07:20:32;76890.50;;;-145.72;100.00
15914;BME280;8055;51.930;8.840;2023-05-17T07:22:58;76882.22;;;-145.72;100.00
15914;BME280;8055;51.930;8.840;2023-05-17T07:25:23;76873.94;;;-145.72;100.00
15914;BME280;8055;51.930;8.840;2023-05-17T07:27:49;76876.00;;;-145.72;100.00
15914;BME280;8055;51.930;8.840;2023-05-17T07:30:15;76876.00;;;-145.72;100.00
15914;BME280;8055;51.930;8.840;2023-05-17T07:32:40;76876.00;;;-145.72;100.00
15914;BME280;8055;51.930;8.840;2023-05-17T07:35:05;76873.94;;;-145.72;100.00
15914;BME280;8055;51.930;8.840;2023-05-17T07:37:31;76863.59;;;-145.72;100.00
15914;BME280;8055;51.930;8.840;2023-05-17T07:39:56;76890.50;;;-145.72;97.53
15914;BME280;8055;51.930;8.840;2023-05-17T07:42:22;76905.00;;;-145.72;100.00
15914;BME280;8055;51.930;8.840;2023-05-17T07:44:47;76921.53;;;-145.72;100.00
15914;BME280;8055;51.930;8.840;2023-05-17T07:47:14;76923.63;;;-145.72;100.00
15914;BME280;8055;51.930;8.840;2023-05-17T07:49:40;76911.19;;;-145.72;100.00
15914;BME280;8055;51.930;8.840;2023-05-17T07:52:06;76919.47;;;-145.72;100.00
15914;BME280;8055;51.930;8.840;2023-05-17T07:54:31;76913.28;;;-145.72;100.00
15914;BME280;8055;51.930;8.840;2023-05-17T07:56:56;76923.63;;;-145.72;99.86
15914;BME280;8055;51.930;8.840;2023-05-17T07:59:23;76946.38;;;-145.72;93.99
15914;BME280;8055;51.930;8.840;2023-05-17T08:01:50;76965.00;;;-145.72;85.76
15914;BME280;8055;51.930;8.840;2023-05-17T08:04:15;76936.03;;;-145.72;95.48
15914;BME280;8055;51.930;8.840;2023-05-17T08:06:42;76886.38;;;-145.72;92.29
15914;BME280;8055;51.930;8.840;2023-05-17T08:09:10;76865.66;;;-145.72;91.18
15914;BME280;8055;51.930;8.840;2023-05-17T08:11:35;76830.47;;;-145.72;85.97
15914;BME280;8055;51.930;8.840;2023-05-17T08:14:02;76820.13;;;-145.72;91.63
15914;BME280;8055;51.930;8.840;2023-05-17T08:16:28;76824.28;;;-145.72;82.16
15914;BME280;8055;51.930;8.840;2023-05-17T08:18:53;76818.06;;;-145.72;89.40
15914;BME280;8055;51.930;8.840;2023-05-17T08:21:18;76797.38;;;-145.72;90.68
15914;BME280;8055;51.930;8.840;2023-05-17T08:23:44;76801.50;;;-145.72;91.48
15914;BME280;8055;51.930;8.840;2023-05-17T08:26:09;76813.91;;;-145.72;79.83
15914;BME280;8055;51.930;8.840;2023-05-17T08:28:37;76803.56;;;-145.72;88.00
15914;BME280;8055;51.930;8.840;2023-05-17T08:31:03;76791.16;;;-145.72;91.54
15914;BME280;8055;51.930;8.840;2023-05-17T08:33:29;76813.91;;;-145.72;89.14
15914;BME280;8055;51.930;8.840;2023-05-17T08:35:54;76797.38;;;-145.72;93.17
15914;BME280;8055;51.930;8.840;2023-05-17T08:38:21;76822.19;;;-145.72;86.54
15914;BME280;8055;51.930;8.840;2023-05-17T08:40:53;76822.19;;;-145.72;92.48
15914;BME280;8055;51.930;8.840;2023-05-17T08:43:21;76832.53;;;-145.72;82.46
15914;BME280;8055;51.930;8.840;2023-05-17T08:45:47;76847.03;;;-145.72;83.72
15914;BME280;8055;51.930;8.840;2023-05-17T08:48:14;76842.91;;;-145.72;80.40
15914;BME280;8055;51.930;8.840;2023-05-17T08:50:41;76849.09;;;-145.72;83.05
15914;BME280;8055;51.930;8.840;2023-05-17T08:53:08;76853.25;;;-145.72;77.27
15914;BME280;8055;51.930;8.840;2023-05-17T08:55:34;76840.81;;;-145.72;79.59
15914;BME280;8055;51.930;8.840;2023-05-17T08:58:00;76784.94;;;-145.72;84.03
15914;BME280;8055;51.930;8.840;2023-05-17T09:00:27;76722.84;;;-145.72;85.03
15914;BME280;8055;51.930;8.840;2023-05-17T09:02:52;76693.88;;;-145.72;72.98
15914;BME280;8055;51.930;8.840;2023-05-17T09:05:18;76609.00;;;-145.72;72.13
15914;BME280;8055;51.930;8.840;2023-05-17T09:07:44;76627.66;;;-145.72;65.43
15914;BME280;8055;51.930;8.840;2023-05-17T09:10:09;76621.44;;;-145.72;64.73
15914;BME280;8055;51.930;8.840;2023-05-17T09:12:35;76633.84;;;-145.72;69.70
15914;BME280;8055;51.930;8.840;2023-05-17T09:15:17;76656.63;;;-145.72;66.80
15914;BME280;8055;51.930;8.840;2023-05-17T09:17:50;76609.00;;;-145.72;67.34
15914;BME280;8055;51.930;8.840;2023-05-17T09:20:23;76606.94;;;-145.72;67.08
15914;BME280;8055;51.930;8.840;2023-05-17T09:22:49;76652.47;;;-145.72;65.69
15914;BME280;8055;51.930;8.840;2023-05-17T09:25:19;76652.47;;;-145.72;70.34
15914;BME280;8055;51.930;8.840;2023-05-17T09:27:45;76695.94;;;-145.72;67.12
15914;BME280;8055;51.930;8.840;2023-05-17T09:30:10;76708.38;;;-145.72;68.33
15914;BME280;8055;51.930;8.840;2023-05-17T09:32:42;76689.72;;;-145.72;72.97
15914;BME280;8055;51.930;8.840;2023-05-17T09:35:09;76687.66;;;-145.72;69.13
15914;BME280;8055;51.930;8.840;2023-05-17T09:37:36;76677.31;;;-145.72;69.60
15914;BME280;8055;51.930;8.840;2023-05-17T09:40:02;76708.38;;;-145.72;69.97
15914;BME280;8055;51.930;8.840;2023-05-17T09:42:33;76722.84;;;-145.72;68.13
15914;BME280;8055;51.930;8.840;2023-05-17T09:45:01;76735.28;;;-145.72;69.38
15914;BME280;8055;51.930;8.840;2023-05-17T09:47:27;76741.47;;;-145.72;70.66
15914;BME280;8055;51.930;8.840;2023-05-17T09:49:55;76743.53;;;-145.72;68.03
15914;BME280;8055;51.930;8.840;2023-05-17T09:52:22;76729.06;;;-145.72;67.58
15914;BME280;8055;51.930;8.840;2023-05-17T09:54:55;76708.38;;;-145.72;66.86
15914;BME280;8055;51.930;8.840;2023-05-17T09:57:22;76652.47;;;-145.72;67.66
15914;BME280;8055;51.930;8.840;2023-05-17T09:59:49;76660.75;;;-145.72;66.01
15914;BME280;8055;51.930;8.840;2023-05-17T10:02:35;76660.75;;;-145.72;63.64
15914;BME280;8055;51.930;8.840;2023-05-17T10:05:04;76698.00;;;-145.72;60.39
15914;BME280;8055;51.930;8.840;2023-05-17T10:07:30;76664.91;;;-145.72;68.82
15914;BME280;8055;51.930;8.840;2023-05-17T10:09:56;76646.28;;;-145.72;63.80
15914;BME280;8055;51.930;8.840;2023-05-17T10:12:24;76654.56;;;-145.72;62.49
15914;BME280;8055;51.930;8.840;2023-05-17T10:14:52;76685.59;;;-145.72;63.81
15914;BME280;8055;51.930;8.840;2023-05-17T10:17:20;76698.00;;;-145.72;65.83
15914;BME280;8055;51.930;8.840;2023-05-17T10:19:46;76720.78;;;-145.72;68.28
15914;BME280;8055;51.930;8.840;2023-05-17T10:22:12;76743.53;;;-145.72;62.84
15914;BME280;8055;51.930;8.840;2023-05-17T10:24:38;76760.09;;;-145.72;63.36
15914;BME280;8055;51.930;8.840;2023-05-17T10:27:05;76741.47;;;-145.72;61.04
15914;BME280;8055;51.930;8.840;2023-05-17T10:29:32;76727.00;;;-145.72;63.66
15914;BME280;8055;51.930;8.840;2023-05-17T10:32:03;76727.00;;;-145.72;63.08
15914;BME280;8055;51.930;8.840;2023-05-17T10:34:30;76708.38;;;-145.72;62.42
15914;BME280;8055;51.930;8.840;2023-05-17T10:36:56;76666.97;;;-145.72;65.43
15914;BME280;8055;51.930;8.840;2023-05-17T10:39:22;76654.56;;;-145.72;66.03
15914;BME280;8055;51.930;8.840;2023-05-17T10:41:51;76656.63;;;-145.72;60.47
15914;BME280;8055;51.930;8.840;2023-05-17T10:44:17;76631.78;;;-145.72;64.31
15914;BME280;8055;51.930;8.840;2023-05-17T10:46:54;76631.78;;;-145.72;63.99
15914;BME280;8055;51.930;8.840;2023-05-17T10:49:23;76638.00;;;-145.72;63.78
15914;BME280;8055;51.930;8.840;2023-05-17T10:51:50;76648.34;;;-145.72;60.54
15914;BME280;8055;51.930;8.840;2023-05-17T10:54:15;76648.34;;;-145.72;65.38
15914;BME280;8055;51.930;8.840;2023-05-17T10:56:49;76652.47;;;-145.72;62.67
15914;BME280;8055;51.930;8.840;2023-05-17T10:59:23;76615.22;;;-145.72;63.16
15914;BME280;8055;51.930;8.840;2023-05-17T11:04:40;76544.84;;;-145.72;61.88
15914;BME280;8055;51.930;8.840;2023-05-17T11:09:42;76503.47;;;-145.72;59.38
15914;BME280;8055;51.930;8.840;2023-05-17T11:12:09;76439.31;;;-145.72;57.08
15914;BME280;8055;51.930;8.840;2023-05-17T11:17:12;76414.47;;;-145.72;57.26
15914;BME280;8055;51.930;8.840;2023-05-17T11:20:32;76422.75;;;-145.72;58.67
15914;BME280;8055;51.930;8.840;2023-05-17T11:22:38;76457.94;;;-145.72;56.67
15914;BME280;8055;51.930;8.840;2023-05-17T11:25:12;76482.78;;;-145.72;54.61
15914;BME280;8055;51.930;8.840;2023-05-17T11:27:43;76515.88;;;-145.72;55.46
15914;BME280;8055;51.930;8.840;2023-05-17T11:30:24;76532.44;;;-145.72;56.24
15914;BME280;8055;51.930;8.840;2023-05-17T11:33:05;76546.94;;;-145.72;54.87
15914;BME280;8055;51.930;8.840;2023-05-17T11:35:33;76553.13;;;-145.72;55.59
15914;BME280;8055;51.930;8.840;2023-05-17T11:38:17;76528.31;;;-145.72;55.53
15914;BME280;8055;51.930;8.840;2023-05-17T11:40:48;76443.44;;;-145.72;54.61
15914;BME280;8055;51.930;8.840;2023-05-17T11:43:18;76433.09;;;-145.72;55.38
15914;BME280;8055;51.930;8.840;2023-05-17T11:45:47;76395.84;;;-145.72;53.26
15914;BME280;8055;51.930;8.840;2023-05-17T11:48:14;76383.44;;;-145.72;50.68
15914;BME280;8055;51.930;8.840;2023-05-17T11:50:40;76294.44;;;-145.72;54.55
15914;BME280;8055;51.930;8.840;2023-05-17T11:53:07;76331.69;;;-145.72;52.04
15914;BME280;8055;51.930;8.840;2023-05-17T11:55:41;76381.34;;;-145.72;53.81
15914;BME280;8055;51.930;8.840;2023-05-17T11:58:08;76400.00;;;-145.72;53.30
15914;BME280;8055;51.930;8.840;2023-05-17T12:00:35;76352.38;;;-145.72;52.38
15914;BME280;8055;51.930;8.840;2023-05-17T12:03:21;76389.63;;;-145.72;54.29
15914;BME280;8055;51.930;8.840;2023-05-17T12:05:48;76364.81;;;-145.72;53.69
15914;BME280;8055;51.930;8.840;2023-05-17T12:08:15;76284.09;;;-145.72;54.86
15914;BME280;8055;51.930;8.840;2023-05-17T12:10:46;76250.97;;;-145.72;49.08
15914;BME280;8055;51.930;8.840;2023-05-17T12:13:11;76271.69;;;-145.72;47.70
15914;BME280;8055;51.930;8.840;2023-05-17T12:15:38;76344.09;;;-145.72;49.65
15914;BME280;8055;51.930;8.840;2023-05-17T12:18:04;76321.34;;;-145.72;51.03
15914;BME280;8055;51.930;8.840;2023-05-17T12:20:29;76298.59;;;-145.72;52.42
15914;BME280;8055;51.930;8.840;2023-05-17T12:22:57;76288.22;;;-145.72;46.29
15914;BME280;8055;51.930;8.840;2023-05-17T12:25:23;76188.91;;;-145.72;49.63
15914;BME280;8055;51.930;8.840;2023-05-17T12:28:14;76120.59;;;-145.72;49.23
15914;BME280;8055;51.930;8.840;2023-05-17T12:30:39;76155.78;;;-145.72;46.22
15914;BME280;8055;51.930;8.840;2023-05-17T12:33:06;76203.38;;;-145.72;46.36
15914;BME280;8055;51.930;8.840;2023-05-17T12:35:31;76153.72;;;-145.72;48.25
15914;BME280;8055;51.930;8.840;2023-05-17T12:37:57;76085.44;;;-145.72;48.86
15914;BME280;8055;51.930;8.840;2023-05-17T12:40:23;76021.28;;;-145.72;45.92
15914;BME280;8055;51.930;8.840;2023-05-17T12:42:48;75967.47;;;-145.72;45.22
15914;BME280;8055;51.930;8.840;2023-05-17T12:45:14;75996.44;;;-145.72;44.47
15914;BME280;8055;51.930;8.840;2023-05-17T12:47:39;76083.34;;;-145.72;44.02
15914;BME280;8055;51.930;8.840;2023-05-17T12:50:05;76174.41;;;-145.72;46.01
15914;BME280;8055;51.930;8.840;2023-05-17T12:52:34;76288.22;;;-145.72;48.51